createdAt,value
2017-03-03T08:05:00.916Z,10604
2017-03-03T08:06:02.496Z,9424
2017-03-03T08:07:03.226Z,11480
2017-03-03T08:08:03.992Z,11528
2017-03-03T08:09:04.730Z,12024
2017-03-03T08:10:05.424Z,10396
2017-03-03T08:11:06.222Z,10588
2017-03-03T08:12:06.965Z,11608
2017-03-03T08:13:07.685Z,12028
2017-03-03T08:14:08.391Z,11804
2017-03-03T08:15:09.128Z,14244
2017-03-03T08:16:09.883Z,15584
2017-03-03T08:17:10.615Z,15852
2017-03-03T08:18:11.342Z,15380
2017-03-03T08:19:12.050Z,16288
2017-03-03T08:20:12.762Z,17280
2017-03-03T08:21:13.470Z,16928
2017-03-03T08:22:14.183Z,16160
2017-03-03T08:23:14.924Z,12736
2017-03-03T08:24:15.658Z,14680
2017-03-03T08:25:16.412Z,15904
2017-03-03T08:26:17.149Z,14576
2017-03-03T08:27:17.898Z,14336
2017-03-03T08:28:18.637Z,13936
2017-03-03T08:29:19.384Z,15136
2017-03-03T08:30:20.122Z,18400
2017-03-03T08:31:20.929Z,18048
2017-03-03T08:32:21.650Z,15236
2017-03-03T08:33:22.356Z,14972
2017-03-03T08:34:23.228Z,14092
2017-03-03T08:35:23.965Z,14420
2017-03-03T08:36:24.695Z,15684
2017-03-03T08:37:25.397Z,15552
2017-03-03T08:38:26.138Z,15648
2017-03-03T08:39:26.857Z,15740
2017-03-03T08:40:27.668Z,15824
2017-03-03T08:41:28.383Z,13480
2017-03-03T08:42:29.191Z,13264
2017-03-03T08:43:31.799Z,13748
2017-03-03T08:44:34.953Z,14004
2017-03-03T08:45:37.653Z,14088
2017-03-03T08:46:38.513Z,14468
2017-03-03T08:47:39.274Z,15524
2017-03-03T08:48:40.051Z,15936
2017-03-03T08:49:40.886Z,16736
2017-03-03T08:50:41.744Z,16576
2017-03-03T08:51:42.554Z,17760
2017-03-03T08:52:43.381Z,18688
2017-03-03T08:53:44.133Z,19296
2017-03-03T08:54:44.873Z,19968
2017-03-03T08:55:45.633Z,19488
2017-03-03T08:56:46.369Z,19648
2017-03-03T08:57:47.102Z,19360
2017-03-03T08:58:47.862Z,20032
2017-03-03T08:59:48.596Z,19232
2017-03-03T09:00:49.336Z,20640
2017-03-03T09:01:50.132Z,20800
2017-03-03T09:02:50.870Z,20096
2017-03-03T09:03:51.644Z,18816
2017-03-03T09:04:52.382Z,18464
2017-03-03T09:05:53.110Z,19744
2017-03-03T09:06:53.859Z,18304
2017-03-03T09:07:54.606Z,17056
2017-03-03T09:08:55.334Z,16088
2017-03-03T09:09:56.069Z,15272
2017-03-03T09:10:56.824Z,18688
2017-03-03T09:11:57.546Z,21216
2017-03-03T09:12:58.289Z,20768
2017-03-03T09:13:58.994Z,23712
2017-03-03T09:14:59.757Z,23776
2017-03-03T09:16:00.477Z,23008
2017-03-03T09:17:01.224Z,19648
2017-03-03T09:18:01.944Z,20992
2017-03-03T09:19:02.693Z,24992
2017-03-03T09:20:03.409Z,25792
2017-03-03T09:21:04.129Z,23424
2017-03-03T09:22:04.857Z,21984
2017-03-03T09:23:05.599Z,23776
2017-03-03T09:24:06.335Z,22528
2017-03-03T09:25:07.061Z,22592
2017-03-03T09:26:07.810Z,23232
2017-03-03T09:27:08.542Z,19488
2017-03-03T09:28:09.275Z,15456
2017-03-03T09:29:09.996Z,13308
2017-03-03T09:30:10.722Z,12944
2017-03-03T09:31:11.439Z,12784
2017-03-03T09:32:12.172Z,12768
2017-03-03T09:33:12.930Z,12820
2017-03-03T09:34:13.661Z,12664
2017-03-03T09:35:14.390Z,12556
2017-03-03T09:36:15.125Z,12424
2017-03-03T09:37:15.854Z,12200
2017-03-03T09:38:16.570Z,11448
2017-03-03T09:39:17.292Z,11468
2017-03-03T09:40:18.017Z,11924
2017-03-03T09:41:18.769Z,11848
2017-03-03T09:42:19.513Z,11572
2017-03-03T09:43:20.243Z,11444
2017-03-03T09:44:21.012Z,11340
2017-03-03T09:45:21.760Z,11112
2017-03-03T09:46:22.535Z,10876
2017-03-03T09:47:23.242Z,10768
2017-03-03T09:48:24.014Z,10932
2017-03-03T09:49:24.730Z,10860
2017-03-03T09:50:25.482Z,10800
2017-03-03T09:51:27.137Z,10792
2017-03-03T09:52:27.861Z,10684
2017-03-03T09:53:28.584Z,10576
2017-03-03T09:54:29.334Z,10624
2017-03-03T09:55:30.065Z,10376
2017-03-03T09:56:30.810Z,10204
2017-03-03T09:57:31.571Z,9840
2017-03-03T09:58:32.278Z,9792
2017-03-03T09:59:33.170Z,9380
2017-03-03T10:00:33.922Z,9344
2017-03-03T10:01:34.648Z,9116
2017-03-03T10:02:35.408Z,8656
2017-03-03T10:03:36.156Z,8752
2017-03-03T10:04:36.955Z,8724
2017-03-03T10:05:37.695Z,8804
2017-03-03T10:06:38.424Z,8596
2017-03-03T10:07:39.176Z,8604
2017-03-03T10:08:39.905Z,8692
2017-03-03T10:09:40.639Z,8424
2017-03-03T10:10:41.371Z,8252
2017-03-03T10:11:42.069Z,8144
2017-03-03T10:12:42.798Z,8056
2017-03-03T10:13:43.524Z,7952
2017-03-03T10:14:44.279Z,7828
2017-03-03T10:15:45.012Z,7880
2017-03-03T10:16:45.787Z,7756
2017-03-03T10:17:46.513Z,7908
2017-03-03T10:18:47.253Z,7924
2017-03-03T10:19:48.018Z,7900
2017-03-03T10:20:48.743Z,7888
2017-03-03T10:21:49.477Z,7876
2017-03-03T10:22:50.258Z,7876
2017-03-03T10:23:50.998Z,7916
2017-03-03T10:24:51.727Z,7932
2017-03-03T10:25:52.464Z,8160
2017-03-03T10:26:53.304Z,7952
2017-03-03T10:27:53.960Z,7752
2017-03-03T10:28:54.706Z,7884
2017-03-03T10:29:55.478Z,7860
2017-03-03T10:30:56.219Z,8168
2017-03-03T10:31:56.970Z,8164
2017-03-03T10:32:57.801Z,8336
2017-03-03T10:33:58.562Z,7960
2017-03-03T10:34:59.300Z,8160
2017-03-03T10:36:00.009Z,8108
2017-03-03T10:37:00.730Z,8044
2017-03-03T10:38:01.466Z,7976
2017-03-03T10:39:02.209Z,8440
2017-03-03T10:40:02.940Z,8232
2017-03-03T10:41:03.645Z,8280
2017-03-03T10:42:04.379Z,8436
2017-03-03T10:43:05.161Z,8212
2017-03-03T10:44:05.888Z,7816
2017-03-03T10:45:06.631Z,7900
2017-03-03T10:46:07.404Z,8808
2017-03-03T10:47:08.157Z,8176
2017-03-03T10:48:08.879Z,7920
2017-03-03T10:49:09.620Z,7784
2017-03-03T10:50:10.360Z,8012
2017-03-03T10:51:11.112Z,7544
2017-03-03T10:52:11.878Z,7488
2017-03-03T10:53:12.605Z,7572
2017-03-03T10:54:13.393Z,7288
2017-03-03T10:55:14.108Z,7184
2017-03-03T10:56:14.835Z,7108
2017-03-03T10:57:15.580Z,6892
2017-03-03T10:58:16.381Z,6844
2017-03-03T10:59:17.087Z,6960
2017-03-03T11:00:17.824Z,7396
2017-03-03T11:01:18.546Z,7244
2017-03-03T11:02:19.295Z,7384
2017-03-03T11:03:20.012Z,7452
2017-03-03T11:04:20.790Z,7552
2017-03-03T11:05:21.521Z,7656
2017-03-03T11:06:22.274Z,7508
2017-03-03T11:07:23.003Z,7556
2017-03-03T11:08:23.739Z,7596
2017-03-03T11:09:24.468Z,7644
2017-03-03T11:10:25.208Z,7624
2017-03-03T11:11:25.937Z,7644
2017-03-03T11:12:26.696Z,7772
2017-03-03T11:13:27.451Z,7804
2017-03-03T11:14:28.159Z,7768
2017-03-03T11:15:28.895Z,7668
2017-03-03T11:16:29.617Z,7704
2017-03-03T11:17:30.356Z,7772
2017-03-03T11:18:31.085Z,7972
2017-03-03T11:19:31.825Z,8108
2017-03-03T11:20:32.539Z,8132
2017-03-03T11:21:33.275Z,8208
2017-03-03T11:22:34.052Z,8248
2017-03-03T11:23:34.764Z,8212
2017-03-03T11:24:35.487Z,8116
2017-03-03T11:25:36.197Z,7996
2017-03-03T11:26:36.918Z,8020
2017-03-03T11:27:37.657Z,7752
2017-03-03T11:28:38.385Z,7636
2017-03-03T11:29:39.105Z,7436
2017-03-03T11:30:39.842Z,7296
2017-03-03T11:31:40.578Z,7028
2017-03-03T11:32:41.329Z,6756
2017-03-03T11:33:42.056Z,6748
2017-03-03T11:34:42.764Z,6636
2017-03-03T11:35:43.471Z,6736
2017-03-03T11:36:44.214Z,6208
2017-03-03T11:37:44.960Z,6064
2017-03-03T11:38:45.720Z,6036
2017-03-03T11:39:46.499Z,5972
2017-03-03T11:40:47.278Z,5896
2017-03-03T11:41:48.007Z,5828
2017-03-03T11:42:48.737Z,5768
2017-03-03T11:43:49.468Z,5688
2017-03-03T11:44:50.201Z,5608
2017-03-03T11:45:50.922Z,5564
2017-03-03T11:46:51.647Z,5436
2017-03-03T11:47:52.343Z,5612
2017-03-03T11:48:53.071Z,5348
2017-03-03T11:49:53.781Z,5284
2017-03-03T11:50:54.510Z,5476
2017-03-03T11:51:55.211Z,5380
2017-03-03T11:52:55.941Z,5244
2017-03-03T11:53:56.675Z,5084
2017-03-03T11:54:57.420Z,4960
2017-03-03T11:55:58.164Z,4740
2017-03-03T11:56:58.911Z,4752
2017-03-03T11:57:59.673Z,4696
2017-03-03T11:59:00.377Z,4624
2017-03-03T12:00:01.099Z,4528
2017-03-03T12:01:01.828Z,4440
2017-03-03T12:02:02.567Z,4504
2017-03-03T12:03:03.352Z,4424
2017-03-03T12:04:04.072Z,4360
2017-03-03T12:05:04.805Z,4328
2017-03-03T12:06:05.515Z,4348
2017-03-03T12:07:06.300Z,4180
2017-03-03T12:08:07.030Z,4208
2017-03-03T12:09:07.781Z,4272
2017-03-03T12:10:08.496Z,4340
2017-03-03T12:11:09.217Z,4340
2017-03-03T12:12:09.953Z,4304
2017-03-03T12:13:10.696Z,4308
2017-03-03T12:14:11.394Z,4336
2017-03-03T12:15:12.142Z,4352
2017-03-03T12:16:12.880Z,4344
2017-03-03T12:17:13.603Z,4408
2017-03-03T12:18:14.331Z,4392
2017-03-03T12:19:15.056Z,4484
2017-03-03T12:20:15.779Z,4476
2017-03-03T12:21:16.486Z,4528
2017-03-03T12:22:17.217Z,4484
2017-03-03T12:23:17.941Z,4372
2017-03-03T12:24:18.658Z,4312
2017-03-03T12:25:19.397Z,4312
2017-03-03T12:26:20.148Z,4268
2017-03-03T12:27:20.868Z,4164
2017-03-03T12:28:21.616Z,4140
2017-03-03T12:29:22.320Z,4140
2017-03-03T12:30:23.032Z,4136
2017-03-03T12:31:23.788Z,4104
2017-03-03T12:32:24.501Z,4056
2017-03-03T12:33:25.240Z,4036
2017-03-03T12:34:25.968Z,3996
2017-03-03T12:35:26.731Z,3964
2017-03-03T12:36:27.499Z,3916
2017-03-03T12:37:28.224Z,3852
2017-03-03T12:38:28.919Z,3768
2017-03-03T12:39:29.640Z,3784
2017-03-03T12:40:30.351Z,3716
2017-03-03T12:41:31.079Z,3676
2017-03-03T12:42:31.807Z,3688
2017-03-03T12:43:32.545Z,3696
2017-03-03T12:44:33.301Z,3720
2017-03-03T12:45:34.017Z,3704
2017-03-03T12:46:34.746Z,3728
2017-03-03T12:47:35.465Z,3796
2017-03-03T12:48:36.178Z,3868
2017-03-03T12:49:36.889Z,3948
2017-03-03T12:50:37.592Z,4020
2017-03-03T12:51:38.299Z,4056
2017-03-03T12:52:39.033Z,4048
2017-03-03T12:53:39.766Z,4024
2017-03-03T12:54:40.491Z,4040
2017-03-03T12:55:41.247Z,4096
2017-03-03T12:56:41.968Z,4148
2017-03-03T12:57:42.696Z,4196
2017-03-03T12:58:43.431Z,4200
2017-03-03T12:59:44.159Z,4236
2017-03-03T13:00:44.927Z,4256
2017-03-03T13:01:45.660Z,4376
2017-03-03T13:02:46.424Z,4436
2017-03-03T13:03:47.162Z,4472
2017-03-03T13:04:47.886Z,4492
2017-03-03T13:05:48.643Z,4512
2017-03-03T13:06:49.404Z,4584
2017-03-03T13:07:50.117Z,4620
2017-03-03T13:08:50.883Z,4640
2017-03-03T13:09:51.619Z,4644
2017-03-03T13:10:52.374Z,4676
2017-03-03T13:11:53.087Z,4732
2017-03-03T13:12:53.815Z,4796
2017-03-03T13:13:54.537Z,4864
2017-03-03T13:14:55.297Z,4968
2017-03-03T13:15:56.050Z,5036
2017-03-03T13:16:56.763Z,5096
2017-03-03T13:17:57.491Z,5092
2017-03-03T13:18:58.239Z,5088
2017-03-03T13:19:58.989Z,5104
2017-03-03T13:20:59.728Z,5080
2017-03-03T13:22:00.448Z,5072
2017-03-03T13:23:01.190Z,5036
2017-03-03T13:24:01.930Z,5036
2017-03-03T13:25:02.674Z,5036
2017-03-03T13:26:03.458Z,5076
2017-03-03T13:27:04.199Z,5108
2017-03-03T13:28:04.927Z,5136
2017-03-03T13:29:05.675Z,5176
2017-03-03T13:30:06.395Z,5324
2017-03-03T13:31:07.120Z,5356
2017-03-03T13:32:07.840Z,5336
2017-03-03T13:33:08.551Z,5404
2017-03-03T13:34:09.325Z,5540
2017-03-03T13:35:10.036Z,5708
2017-03-03T13:36:10.744Z,5880
2017-03-03T13:37:11.463Z,6116
2017-03-03T13:38:12.221Z,6280
2017-03-03T13:39:12.924Z,6408
2017-03-03T13:40:13.688Z,6468
2017-03-03T13:41:14.481Z,6504
2017-03-03T13:42:15.195Z,6492
2017-03-03T13:43:15.929Z,6484
2017-03-03T13:44:16.649Z,6440
2017-03-03T13:45:17.402Z,6428
2017-03-03T13:46:18.284Z,6524
2017-03-03T13:47:19.025Z,6624
2017-03-03T13:48:19.785Z,6756
2017-03-03T13:49:20.519Z,6900
2017-03-03T13:50:21.256Z,7036
2017-03-03T13:51:21.988Z,7132
2017-03-03T13:52:22.729Z,7192
2017-03-03T13:53:24.410Z,7200
2017-03-03T13:54:24.243Z,7148
2017-03-03T13:55:24.987Z,7084
2017-03-03T13:56:25.777Z,7040
2017-03-03T13:57:26.509Z,7040
2017-03-03T13:58:27.220Z,7044
2017-03-03T13:59:28.388Z,6988
2017-03-03T14:00:30.332Z,6884
2017-03-03T14:01:32.036Z,6804
2017-03-03T14:02:32.792Z,6772
2017-03-03T14:03:33.555Z,6780
2017-03-03T14:04:34.289Z,6876
2017-03-03T14:05:35.207Z,6992
2017-03-03T14:06:36.456Z,7136
2017-03-03T14:07:37.192Z,7292
2017-03-03T14:08:37.922Z,7384
2017-03-03T14:09:40.138Z,7460
2017-03-03T14:10:43.266Z,7616
2017-03-03T14:11:46.424Z,7832
2017-03-03T14:12:48.758Z,7964
2017-03-03T14:13:49.495Z,8020
2017-03-03T14:14:50.228Z,8076
2017-03-03T14:15:50.964Z,8204
2017-03-03T14:16:51.709Z,8320
2017-03-03T14:17:52.431Z,8348
2017-03-03T14:18:53.159Z,8252
2017-03-03T14:19:53.893Z,8060
2017-03-03T14:20:54.647Z,7848
2017-03-03T14:21:55.398Z,7716
2017-03-03T14:22:56.138Z,7632
2017-03-03T14:23:56.900Z,7508
2017-03-03T14:24:57.653Z,7356
2017-03-03T14:25:58.404Z,7228
2017-03-03T14:26:59.136Z,7124
2017-03-03T14:27:59.864Z,6984
2017-03-03T14:29:00.594Z,6872
2017-03-03T14:30:01.334Z,6804
2017-03-03T14:31:02.047Z,6716
2017-03-03T14:32:02.765Z,6600
2017-03-03T14:33:03.526Z,6484
2017-03-03T14:34:04.294Z,6372
2017-03-03T14:35:05.028Z,6248
2017-03-03T14:36:05.761Z,6108
2017-03-03T14:37:06.486Z,5980
2017-03-03T14:38:07.208Z,5872
2017-03-03T14:39:07.941Z,5828
2017-03-03T14:40:08.662Z,5856
2017-03-03T14:41:09.391Z,5884
2017-03-03T14:42:10.111Z,5864
2017-03-03T14:43:10.865Z,5816
2017-03-03T14:44:11.600Z,5764
2017-03-03T14:45:12.318Z,5668
2017-03-03T14:46:13.038Z,5572
2017-03-03T14:47:13.785Z,5500
2017-03-03T14:48:14.517Z,5452
2017-03-03T14:49:15.255Z,5424
2017-03-03T14:50:16.054Z,5396
2017-03-03T14:51:16.769Z,5360
2017-03-03T14:52:17.495Z,5328
2017-03-03T14:53:18.268Z,5296
2017-03-03T14:54:18.971Z,5244
2017-03-03T14:55:19.696Z,5168
2017-03-03T14:56:20.438Z,5068
2017-03-03T14:57:21.164Z,4948
2017-03-03T14:58:21.906Z,4836
2017-03-03T14:59:22.618Z,4748
2017-03-03T15:00:23.338Z,4692
2017-03-03T15:01:24.052Z,4648
2017-03-03T15:02:24.782Z,4624
2017-03-03T15:03:25.504Z,4620
2017-03-03T15:04:26.258Z,4628
2017-03-03T15:05:26.996Z,4632
2017-03-03T15:06:27.791Z,4616
2017-03-03T15:07:28.578Z,4548
2017-03-03T15:08:29.681Z,4440
2017-03-03T15:09:30.600Z,4360
2017-03-03T15:10:31.332Z,4320
2017-03-03T15:11:32.453Z,4272
2017-03-03T15:12:33.607Z,4212
2017-03-03T15:13:34.330Z,4144
2017-03-03T15:14:35.524Z,4060
2017-03-03T15:15:36.656Z,3976
2017-03-03T15:16:37.771Z,3904
2017-03-03T15:17:39.006Z,3840
2017-03-03T15:18:40.012Z,3784
2017-03-03T15:19:40.737Z,3720
2017-03-03T15:20:41.479Z,3644
2017-03-03T15:21:42.225Z,3564
2017-03-03T15:22:42.933Z,3496
2017-03-03T15:23:44.331Z,3432
2017-03-03T15:24:45.404Z,3380
2017-03-03T15:25:46.151Z,3344
2017-03-03T15:26:46.896Z,3308
2017-03-03T15:27:47.630Z,3276
2017-03-03T15:28:48.405Z,3244
2017-03-03T15:29:49.120Z,3216
2017-03-03T15:30:49.847Z,3200
2017-03-03T15:31:50.566Z,3188
2017-03-03T15:32:51.300Z,3176
2017-03-03T15:33:52.390Z,3168
2017-03-03T15:34:53.245Z,3160
2017-03-03T15:35:53.990Z,3156
2017-03-03T15:36:54.901Z,3156
2017-03-03T15:37:55.627Z,3144
2017-03-03T15:38:56.360Z,3132
2017-03-03T15:39:57.102Z,3104
2017-03-03T15:40:58.336Z,3068
2017-03-03T15:41:59.083Z,3032
2017-03-03T15:42:59.813Z,2996
2017-03-03T15:44:00.549Z,2940
2017-03-03T15:45:01.273Z,2872
2017-03-03T15:46:02.022Z,2796
2017-03-03T15:47:02.766Z,2704
2017-03-03T15:48:03.491Z,2592
2017-03-03T15:49:04.249Z,2464
2017-03-03T15:50:04.980Z,2348
2017-03-03T15:51:05.733Z,2240
2017-03-03T15:52:06.470Z,2136
2017-03-03T15:53:07.207Z,2040
2017-03-03T15:54:07.989Z,1952
2017-03-03T15:55:08.720Z,1868
2017-03-03T15:56:09.474Z,1784
2017-03-03T15:57:10.224Z,1700
2017-03-03T15:58:11.118Z,1624
2017-03-03T15:59:12.261Z,1548
2017-03-03T16:00:13.740Z,1472
2017-03-03T16:01:14.704Z,1404
2017-03-03T16:02:16.075Z,1344
2017-03-03T16:03:17.530Z,1292
2017-03-03T16:04:18.625Z,1248
2017-03-03T16:05:19.489Z,1220
2017-03-03T16:06:20.529Z,1196
2017-03-03T16:07:21.319Z,1180
2017-03-03T16:08:22.449Z,1168
2017-03-03T16:09:23.275Z,1160
2017-03-03T16:10:24.190Z,1156
2017-03-03T16:11:24.916Z,1152
2017-03-03T16:12:25.971Z,1140
2017-03-03T16:13:26.714Z,1120
2017-03-03T16:14:27.462Z,1104
2017-03-03T16:15:28.820Z,1080
2017-03-03T16:16:29.734Z,1052
2017-03-03T16:17:30.552Z,1024
2017-03-03T16:18:31.951Z,992
2017-03-03T16:19:33.652Z,952
2017-03-03T16:20:34.414Z,908
2017-03-03T16:21:35.158Z,876
2017-03-03T16:22:35.901Z,848
2017-03-03T16:23:36.655Z,816
2017-03-03T16:24:37.388Z,784
2017-03-03T16:25:38.128Z,756
2017-03-03T16:26:38.868Z,728
2017-03-03T16:27:39.632Z,700
2017-03-03T16:28:40.354Z,668
2017-03-03T16:29:41.109Z,648
2017-03-03T16:30:41.833Z,636
2017-03-03T16:31:42.585Z,620
2017-03-03T16:32:43.498Z,600
2017-03-03T16:33:44.228Z,580
2017-03-03T16:34:44.965Z,564
2017-03-03T16:35:45.710Z,544
2017-03-03T16:36:46.553Z,528
2017-03-03T16:37:47.474Z,500
2017-03-03T16:38:48.230Z,476
2017-03-03T16:39:49.346Z,452
2017-03-03T16:40:50.087Z,428
2017-03-03T16:41:50.847Z,408
2017-03-03T16:42:51.649Z,384
2017-03-03T16:43:52.382Z,364
2017-03-03T16:44:53.142Z,344
2017-03-03T16:45:53.895Z,320
2017-03-03T16:46:54.627Z,296
2017-03-03T16:47:55.400Z,280
2017-03-03T16:48:56.180Z,256
2017-03-03T16:49:56.921Z,240
2017-03-03T16:50:57.661Z,220
2017-03-03T16:51:58.470Z,200
2017-03-03T16:52:59.373Z,180
2017-03-03T16:54:00.082Z,168
2017-03-03T16:55:00.827Z,152
2017-03-03T16:56:01.700Z,136
2017-03-03T16:57:02.406Z,128
2017-03-03T16:58:03.205Z,116
2017-03-03T16:59:03.943Z,104
2017-03-03T17:00:04.667Z,100
2017-03-03T17:01:05.407Z,88
2017-03-03T17:02:06.144Z,84
2017-03-03T17:03:06.900Z,76
2017-03-03T17:04:07.749Z,68
2017-03-03T17:05:08.506Z,60
2017-03-03T17:06:09.342Z,52
2017-03-03T17:07:10.059Z,48
2017-03-03T17:08:10.800Z,44
2017-03-03T17:09:11.532Z,36
2017-03-03T17:10:12.262Z,32
2017-03-03T17:11:12.993Z,28
2017-03-03T17:12:13.738Z,28
2017-03-03T17:13:14.481Z,24
2017-03-03T17:14:15.201Z,20
2017-03-03T17:15:15.962Z,16
2017-03-03T17:16:16.686Z,16
2017-03-03T17:17:17.410Z,12
2017-03-03T17:18:18.187Z,12
2017-03-03T17:19:18.955Z,8
2017-03-03T17:20:19.723Z,8
2017-03-03T17:21:20.470Z,4
2017-03-03T17:22:21.207Z,8
2017-03-03T17:23:21.955Z,4
2017-03-03T17:24:22.704Z,4
2017-03-03T17:25:23.455Z,4
2017-03-03T17:26:24.170Z,4
2017-03-03T17:27:24.927Z,4
2017-03-03T17:28:25.676Z,0
2017-03-03T17:29:26.399Z,0
2017-03-03T17:30:27.169Z,0
2017-03-03T17:31:27.919Z,0
2017-03-03T17:32:28.664Z,0
2017-03-03T17:33:29.428Z,0
2017-03-03T17:34:30.167Z,0
2017-03-03T17:35:30.875Z,0
2017-03-03T17:36:31.609Z,0
2017-03-03T17:37:32.344Z,0
2017-03-03T17:38:33.093Z,0
2017-03-03T17:39:33.822Z,0
2017-03-03T17:40:34.917Z,0
2017-03-03T17:41:35.645Z,0
2017-03-03T17:42:36.375Z,0
2017-03-03T17:43:37.113Z,0
2017-03-03T17:44:37.857Z,0
2017-03-03T17:45:38.590Z,0
2017-03-03T17:46:39.307Z,0
2017-03-03T17:47:40.061Z,0
2017-03-03T17:48:40.796Z,0
2017-03-03T17:49:41.545Z,0
2017-03-03T17:50:42.272Z,0
2017-03-03T17:51:43.023Z,0
2017-03-03T17:52:43.748Z,0
2017-03-03T17:53:44.494Z,0
2017-03-03T17:54:45.255Z,0
2017-03-03T17:55:45.989Z,0
2017-03-03T17:56:46.726Z,0
2017-03-03T17:57:47.455Z,0
2017-03-03T17:58:48.201Z,0
2017-03-03T17:59:49.307Z,0
2017-03-03T18:00:51.397Z,0
2017-03-03T18:01:52.412Z,0
2017-03-03T18:02:53.130Z,0
2017-03-03T18:03:53.854Z,0
2017-03-03T18:04:54.599Z,0
2017-03-03T18:05:55.326Z,0
2017-03-03T18:06:56.060Z,0
2017-03-03T18:07:56.782Z,0
2017-03-03T18:08:57.547Z,0
2017-03-03T18:09:58.293Z,0
2017-03-03T18:10:59.030Z,0
2017-03-03T18:11:59.773Z,0
2017-03-03T18:13:00.518Z,0
2017-03-03T18:14:01.395Z,0
2017-03-03T18:15:02.169Z,0
2017-03-03T18:16:02.900Z,0
2017-03-03T18:17:03.615Z,0
2017-03-03T18:18:04.340Z,0
2017-03-03T18:19:05.132Z,0
2017-03-03T18:20:05.855Z,0
2017-03-03T18:21:06.576Z,0
2017-03-03T18:22:07.420Z,0
2017-03-03T18:23:08.146Z,0
2017-03-03T18:24:08.867Z,0
2017-03-03T18:25:09.580Z,0
2017-03-03T18:26:10.345Z,0
2017-03-03T18:27:11.083Z,0
2017-03-03T18:28:11.808Z,0
2017-03-03T18:29:12.571Z,0
2017-03-03T18:30:13.355Z,0
2017-03-03T18:31:14.118Z,0
2017-03-03T18:32:14.864Z,0
2017-03-03T18:33:15.577Z,0
2017-03-03T18:34:16.340Z,0
2017-03-03T18:35:17.070Z,0
2017-03-03T18:36:17.799Z,0
2017-03-03T18:37:18.524Z,0
2017-03-03T18:38:19.270Z,0
2017-03-03T18:39:19.996Z,0
2017-03-03T18:40:20.830Z,0
2017-03-03T18:41:21.572Z,0
2017-03-03T18:42:22.430Z,0
2017-03-03T18:43:23.167Z,0
2017-03-03T18:44:23.894Z,0
2017-03-03T18:45:24.627Z,0
2017-03-03T18:46:25.338Z,0
2017-03-03T18:47:26.066Z,0
2017-03-03T18:48:26.788Z,0
2017-03-03T18:49:27.504Z,0
2017-03-03T18:50:28.296Z,0
2017-03-03T18:51:29.049Z,0
2017-03-03T18:52:29.833Z,0
2017-03-03T18:53:30.545Z,0
2017-03-03T18:54:31.264Z,0
2017-03-03T18:55:32.001Z,0
2017-03-03T18:56:32.735Z,0
2017-03-03T18:57:33.504Z,0
2017-03-03T18:58:34.229Z,0
2017-03-03T18:59:34.991Z,0
2017-03-03T19:00:35.744Z,0
2017-03-03T19:01:36.500Z,0
2017-03-03T19:02:37.226Z,0
2017-03-03T19:03:38.553Z,0
2017-03-03T19:04:39.319Z,0
2017-03-03T19:05:40.485Z,0
2017-03-03T19:06:41.500Z,0
2017-03-03T19:07:43.246Z,0
2017-03-03T19:08:45.016Z,0
2017-03-03T19:09:47.056Z,0
2017-03-03T19:10:47.853Z,0
2017-03-03T19:11:48.686Z,0
2017-03-03T19:12:49.466Z,0
2017-03-03T19:13:50.520Z,0
2017-03-03T19:14:51.562Z,0
2017-03-03T19:15:52.274Z,0
2017-03-03T19:16:53.916Z,0
2017-03-03T19:17:54.743Z,0
2017-03-03T19:18:55.472Z,0
2017-03-03T19:19:56.303Z,0
2017-03-03T19:20:57.151Z,0
2017-03-03T19:21:58.274Z,0
2017-03-03T19:22:59.310Z,0
2017-03-03T19:24:01.844Z,0
2017-03-03T19:25:03.718Z,0
2017-03-03T19:26:04.425Z,0
2017-03-03T19:27:05.542Z,0
2017-03-03T19:28:06.449Z,0
2017-03-03T19:29:07.543Z,0
2017-03-03T19:30:08.320Z,0
2017-03-03T19:31:09.292Z,0
2017-03-03T19:32:10.677Z,0
2017-03-03T19:33:11.396Z,0
2017-03-03T19:34:12.816Z,0
2017-03-03T19:35:13.861Z,0
2017-03-03T19:36:14.712Z,0
2017-03-03T19:37:15.820Z,0
2017-03-03T19:38:16.585Z,0
2017-03-03T19:39:17.363Z,0
2017-03-03T19:40:18.395Z,0
2017-03-03T19:41:19.149Z,0
2017-03-03T19:42:20.915Z,0
2017-03-03T19:43:22.080Z,0
2017-03-03T19:44:22.826Z,0
2017-03-03T19:45:23.585Z,0
2017-03-03T19:46:24.348Z,0
2017-03-03T19:47:25.132Z,0
2017-03-03T19:48:25.895Z,0
2017-03-03T19:49:26.812Z,0
2017-03-03T19:50:27.624Z,0
2017-03-03T19:51:28.382Z,0
2017-03-03T19:52:29.535Z,0
2017-03-03T19:53:30.299Z,0
2017-03-03T19:54:31.073Z,0
2017-03-03T19:55:31.825Z,0
2017-03-03T19:56:32.715Z,0
2017-03-03T19:57:33.472Z,0
2017-03-03T19:58:34.314Z,0
2017-03-03T19:59:35.049Z,0
2017-03-03T20:00:36.095Z,0
2017-03-03T20:01:37.494Z,0
2017-03-03T20:02:38.221Z,0
2017-03-03T20:03:38.977Z,0
2017-03-03T20:04:39.729Z,0
2017-03-03T20:05:40.493Z,0
2017-03-03T20:06:41.720Z,0
2017-03-03T20:07:42.465Z,0
2017-03-03T20:08:43.655Z,0
2017-03-03T20:09:44.694Z,0
2017-03-03T20:10:46.038Z,0
2017-03-03T20:11:46.762Z,0
2017-03-03T20:12:47.930Z,0
2017-03-03T20:13:48.686Z,0
2017-03-03T20:14:49.407Z,0
2017-03-03T20:15:50.166Z,0
2017-03-03T20:16:51.037Z,0
2017-03-03T20:17:51.855Z,0
2017-03-03T20:18:52.593Z,0
2017-03-03T20:19:53.358Z,0
2017-03-03T20:20:54.591Z,0
2017-03-03T20:21:55.756Z,0
2017-03-03T20:22:56.554Z,0
2017-03-03T20:23:57.733Z,0
2017-03-03T20:24:58.468Z,0
2017-03-03T20:25:59.191Z,0
2017-03-03T20:26:59.945Z,0
2017-03-03T20:28:00.867Z,0
2017-03-03T20:29:01.856Z,0
2017-03-03T20:30:02.558Z,0
2017-03-03T20:31:03.363Z,0
2017-03-03T20:32:04.099Z,0
2017-03-03T20:33:04.857Z,0
2017-03-03T20:34:05.591Z,0
2017-03-03T20:35:06.330Z,0
2017-03-03T20:36:07.069Z,0
2017-03-03T20:37:07.900Z,0
2017-03-03T20:38:08.670Z,0
2017-03-03T20:39:09.386Z,0
2017-03-03T20:40:10.406Z,0
2017-03-03T20:41:11.480Z,0
2017-03-03T20:42:12.238Z,0
2017-03-03T20:43:12.960Z,0
2017-03-03T20:44:13.688Z,0
2017-03-03T20:45:14.427Z,0
2017-03-03T20:46:15.248Z,0
2017-03-03T20:47:16.128Z,0
2017-03-03T20:48:16.863Z,0
2017-03-03T20:49:17.571Z,0
2017-03-03T20:50:18.524Z,0
2017-03-03T20:51:19.247Z,0
2017-03-03T20:52:20.002Z,0
2017-03-03T20:53:20.701Z,0
2017-03-03T20:54:21.752Z,0
2017-03-03T20:55:22.691Z,0
2017-03-03T20:56:23.921Z,0
2017-03-03T20:57:24.641Z,0
2017-03-03T20:58:25.411Z,0
2017-03-03T20:59:26.164Z,0
2017-03-03T21:00:26.930Z,0
2017-03-03T21:01:27.679Z,0
2017-03-03T21:02:28.488Z,0
2017-03-03T21:03:29.347Z,0
2017-03-03T21:04:30.125Z,0
2017-03-03T21:05:30.970Z,0
2017-03-03T21:06:31.834Z,0
2017-03-03T21:07:32.720Z,0
2017-03-03T21:08:33.523Z,0
2017-03-03T21:09:34.453Z,0
2017-03-03T21:10:35.382Z,0
2017-03-03T21:11:36.302Z,0
2017-03-03T21:12:37.230Z,0
2017-03-03T21:13:38.159Z,0
2017-03-03T21:14:38.951Z,0
2017-03-03T21:15:39.841Z,0
2017-03-03T21:16:40.659Z,0
2017-03-03T21:17:41.497Z,0
2017-03-03T21:18:42.382Z,0
2017-03-03T21:19:43.176Z,0
2017-03-03T21:20:43.931Z,0
2017-03-03T21:21:44.761Z,0
2017-03-03T21:22:45.640Z,0
2017-03-03T21:23:46.562Z,0
2017-03-03T21:24:47.481Z,0
2017-03-03T21:25:48.425Z,0
2017-03-03T21:26:49.158Z,0
2017-03-03T21:27:50.096Z,0
2017-03-03T21:28:50.959Z,0
2017-03-03T21:29:51.819Z,0
2017-03-03T21:30:52.674Z,0
2017-03-03T21:31:53.503Z,0
2017-03-03T21:32:54.244Z,0
2017-03-03T21:33:55.022Z,0
2017-03-03T21:34:55.904Z,0
2017-03-03T21:35:56.757Z,0
2017-03-03T21:36:57.629Z,0
2017-03-03T21:37:58.437Z,0
2017-03-03T21:38:59.303Z,0
2017-03-03T21:40:00.230Z,0
2017-03-03T21:41:01.032Z,0
2017-03-03T21:42:02.110Z,0
2017-03-03T21:43:02.945Z,0
2017-03-03T21:44:03.828Z,0
2017-03-03T21:45:04.608Z,0
2017-03-03T21:46:05.396Z,0
2017-03-03T21:47:06.266Z,0
2017-03-03T21:48:07.082Z,0
2017-03-03T21:49:07.935Z,0
2017-03-03T21:50:08.789Z,0
2017-03-03T21:51:09.629Z,0
2017-03-03T21:52:10.423Z,0
2017-03-03T21:53:11.283Z,0
2017-03-03T21:54:12.163Z,0
2017-03-03T21:55:13.091Z,0
2017-03-03T21:56:14.005Z,0
2017-03-03T21:57:14.900Z,0
2017-03-03T21:58:15.663Z,0
2017-03-03T21:59:16.473Z,0
2017-03-03T22:00:17.297Z,0
2017-03-03T22:01:18.125Z,0